Terminal Aerodrome Forecast
Issued by NWS Cleveland, OH

Home | Current Version | Previous Version | Text Only | Print | Product List | Glossary On
Versions: 1 2 3 4 5 6 7 8 9 10 11 12 13 14 15 16 17 18 19 20 21 22 23 24 25 26
000
FTUS41 KCLE 210900 AAB
TAFCLE
TAF AMD
KCLE 210901Z 2109/2212 22010KT 6SM -TSRA BKN035CB
     FM210930 22010KT P6SM FEW018 OVC045
     FM211200 23012KT P6SM BKN018 OVC045
     FM211500 26012G20KT P6SM OVC025
     FM212000 30015G22KT P6SM VCSH BKN025
     FM220100 33012KT P6SM VCSH BKN030=

USA.gov is the U.S. government's official web portal to all federal, state and local government web resources and services.